sensor_id;sensor_type;location;lat;lon;timestamp;P1;durP1;ratioP1;P2;durP2;ratioP2
75798;SDS011;65035;44.726;37.764;2023-03-20T00:00:53;8.45;;;4.80;;
75798;SDS011;65035;44.726;37.764;2023-03-20T00:01:56;6.25;;;4.38;;
75798;SDS011;65035;44.726;37.764;2023-03-20T00:02:59;6.53;;;3.42;;
75798;SDS011;65035;44.726;37.764;2023-03-20T00:05:14;5.93;;;3.97;;
75798;SDS011;65035;44.726;37.764;2023-03-20T00:06:25;7.00;;;4.35;;
75798;SDS011;65035;44.726;37.764;2023-03-20T00:07:32;7.75;;;3.72;;
75798;SDS011;65035;44.726;37.764;2023-03-20T00:08:35;8.02;;;5.00;;
75798;SDS011;65035;44.726;37.764;2023-03-20T00:09:40;8.90;;;4.63;;
75798;SDS011;65035;44.726;37.764;2023-03-20T00:13:11;9.10;;;7.28;;
75798;SDS011;65035;44.726;37.764;2023-03-20T00:17:46;8.73;;;5.57;;
75798;SDS011;65035;44.726;37.764;2023-03-20T00:18:49;8.95;;;4.80;;
75798;SDS011;65035;44.726;37.764;2023-03-20T00:20:42;6.68;;;4.43;;
75798;SDS011;65035;44.726;37.764;2023-03-20T00:21:47;8.77;;;4.70;;
75798;SDS011;65035;44.726;37.764;2023-03-20T00:23:46;6.40;;;4.60;;
75798;SDS011;65035;44.726;37.764;2023-03-20T00:24:50;9.10;;;4.95;;
75798;SDS011;65035;44.726;37.764;2023-03-20T00:25:53;7.90;;;4.82;;
75798;SDS011;65035;44.726;37.764;2023-03-20T00:26:57;9.00;;;5.15;;
75798;SDS011;65035;44.726;37.764;2023-03-20T00:28:02;9.15;;;5.00;;
75798;SDS011;65035;44.726;37.764;2023-03-20T00:29:17;9.68;;;5.13;;
75798;SDS011;65035;44.726;37.764;2023-03-20T00:32:13;9.02;;;6.75;;
75798;SDS011;65035;44.726;37.764;2023-03-20T00:34:05;10.48;;;5.15;;
75798;SDS011;65035;44.726;37.764;2023-03-20T00:36:57;8.75;;;5.65;;
75798;SDS011;65035;44.726;37.764;2023-03-20T00:38:52;11.00;;;5.28;;
75798;SDS011;65035;44.726;37.764;2023-03-20T00:42:27;10.55;;;7.22;;
75798;SDS011;65035;44.726;37.764;2023-03-20T00:43:30;9.02;;;5.07;;
75798;SDS011;65035;44.726;37.764;2023-03-20T00:44:36;9.63;;;4.90;;
75798;SDS011;65035;44.726;37.764;2023-03-20T00:47:12;7.72;;;6.18;;
75798;SDS011;65035;44.726;37.764;2023-03-20T00:48:20;8.63;;;6.63;;
75798;SDS011;65035;44.726;37.764;2023-03-20T00:49:27;9.88;;;7.45;;
75798;SDS011;65035;44.726;37.764;2023-03-20T00:50:33;9.55;;;6.68;;
75798;SDS011;65035;44.726;37.764;2023-03-20T00:52:28;9.77;;;5.30;;
75798;SDS011;65035;44.726;37.764;2023-03-20T00:54:19;10.57;;;6.35;;
75798;SDS011;65035;44.726;37.764;2023-03-20T00:55:23;9.10;;;7.25;;
75798;SDS011;65035;44.726;37.764;2023-03-20T00:56:32;9.00;;;7.72;;
75798;SDS011;65035;44.726;37.764;2023-03-20T00:57:41;11.20;;;7.72;;
75798;SDS011;65035;44.726;37.764;2023-03-20T00:59:36;10.65;;;5.65;;
75798;SDS011;65035;44.726;37.764;2023-03-20T01:01:30;10.43;;;4.93;;
75798;SDS011;65035;44.726;37.764;2023-03-20T01:02:33;9.57;;;5.38;;
75798;SDS011;65035;44.726;37.764;2023-03-20T01:03:37;10.35;;;4.97;;
75798;SDS011;65035;44.726;37.764;2023-03-20T01:04:41;7.88;;;5.38;;
75798;SDS011;65035;44.726;37.764;2023-03-20T01:05:45;8.93;;;5.07;;
75798;SDS011;65035;44.726;37.764;2023-03-20T01:07:51;8.13;;;5.35;;
75798;SDS011;65035;44.726;37.764;2023-03-20T01:08:56;10.57;;;5.40;;
75798;SDS011;65035;44.726;37.764;2023-03-20T01:09:59;9.20;;;4.90;;
75798;SDS011;65035;44.726;37.764;2023-03-20T01:11:04;9.73;;;5.53;;
75798;SDS011;65035;44.726;37.764;2023-03-20T01:12:09;7.75;;;4.88;;
75798;SDS011;65035;44.726;37.764;2023-03-20T01:13:25;8.35;;;5.05;;
75798;SDS011;65035;44.726;37.764;2023-03-20T01:15:26;8.15;;;5.47;;
75798;SDS011;65035;44.726;37.764;2023-03-20T01:17:29;8.75;;;4.88;;
75798;SDS011;65035;44.726;37.764;2023-03-20T01:18:32;12.15;;;6.05;;
75798;SDS011;65035;44.726;37.764;2023-03-20T01:19:35;9.57;;;5.55;;
75798;SDS011;65035;44.726;37.764;2023-03-20T01:20:39;10.57;;;5.85;;
75798;SDS011;65035;44.726;37.764;2023-03-20T01:22:45;9.90;;;5.20;;
75798;SDS011;65035;44.726;37.764;2023-03-20T01:24:51;9.93;;;6.10;;
75798;SDS011;65035;44.726;37.764;2023-03-20T01:25:54;10.55;;;5.40;;
75798;SDS011;65035;44.726;37.764;2023-03-20T01:27:47;10.23;;;7.03;;
75798;SDS011;65035;44.726;37.764;2023-03-20T01:28:53;8.65;;;7.57;;
75798;SDS011;65035;44.726;37.764;2023-03-20T01:30:52;9.68;;;5.38;;
75798;SDS011;65035;44.726;37.764;2023-03-20T01:34:20;9.77;;;5.28;;
75798;SDS011;65035;44.726;37.764;2023-03-20T01:35:24;13.10;;;5.18;;
75798;SDS011;65035;44.726;37.764;2023-03-20T01:36:32;8.73;;;4.90;;
75798;SDS011;65035;44.726;37.764;2023-03-20T01:39:31;11.52;;;5.20;;
75798;SDS011;65035;44.726;37.764;2023-03-20T01:41:21;9.77;;;5.63;;
75798;SDS011;65035;44.726;37.764;2023-03-20T01:43:00;11.77;;;5.63;;
75798;SDS011;65035;44.726;37.764;2023-03-20T01:44:19;8.35;;;5.47;;
75798;SDS011;65035;44.726;37.764;2023-03-20T01:45:33;8.40;;;4.95;;
75798;SDS011;65035;44.726;37.764;2023-03-20T01:47:27;7.28;;;5.18;;
75798;SDS011;65035;44.726;37.764;2023-03-20T01:51:22;9.20;;;4.97;;
75798;SDS011;65035;44.726;37.764;2023-03-20T01:52:29;8.15;;;5.00;;
75798;SDS011;65035;44.726;37.764;2023-03-20T01:53:32;10.93;;;6.00;;
75798;SDS011;65035;44.726;37.764;2023-03-20T01:54:36;9.40;;;5.75;;
75798;SDS011;65035;44.726;37.764;2023-03-20T01:55:44;10.32;;;5.60;;
75798;SDS011;65035;44.726;37.764;2023-03-20T01:56:59;8.40;;;4.93;;
75798;SDS011;65035;44.726;37.764;2023-03-20T01:58:18;11.70;;;6.72;;
75798;SDS011;65035;44.726;37.764;2023-03-20T01:59:30;8.43;;;5.35;;
75798;SDS011;65035;44.726;37.764;2023-03-20T02:00:46;8.88;;;4.85;;
75798;SDS011;65035;44.726;37.764;2023-03-20T02:01:51;10.68;;;6.10;;
75798;SDS011;65035;44.726;37.764;2023-03-20T02:02:56;7.40;;;5.55;;
75798;SDS011;65035;44.726;37.764;2023-03-20T02:05:09;8.52;;;6.65;;
75798;SDS011;65035;44.726;37.764;2023-03-20T02:06:15;9.60;;;7.28;;
75798;SDS011;65035;44.726;37.764;2023-03-20T02:07:37;7.65;;;6.40;;
75798;SDS011;65035;44.726;37.764;2023-03-20T02:08:44;7.80;;;6.45;;
75798;SDS011;65035;44.726;37.764;2023-03-20T02:09:50;9.20;;;8.20;;
75798;SDS011;65035;44.726;37.764;2023-03-20T02:11:01;8.52;;;6.53;;
75798;SDS011;65035;44.726;37.764;2023-03-20T02:12:05;9.85;;;6.75;;
75798;SDS011;65035;44.726;37.764;2023-03-20T02:14:19;8.88;;;4.68;;
75798;SDS011;65035;44.726;37.764;2023-03-20T02:16:11;9.23;;;4.80;;
75798;SDS011;65035;44.726;37.764;2023-03-20T02:17:27;8.80;;;5.20;;
75798;SDS011;65035;44.726;37.764;2023-03-20T02:18:34;11.10;;;4.93;;
75798;SDS011;65035;44.726;37.764;2023-03-20T02:19:54;9.10;;;5.07;;
75798;SDS011;65035;44.726;37.764;2023-03-20T02:25:08;10.15;;;4.90;;
75798;SDS011;65035;44.726;37.764;2023-03-20T02:32:27;9.82;;;5.45;;
75798;SDS011;65035;44.726;37.764;2023-03-20T02:35:41;9.40;;;5.50;;
75798;SDS011;65035;44.726;37.764;2023-03-20T02:46:41;7.57;;;4.40;;
75798;SDS011;65035;44.726;37.764;2023-03-20T02:58:13;9.38;;;5.50;;
75798;SDS011;65035;44.726;37.764;2023-03-20T03:01:19;9.60;;;4.75;;
75798;SDS011;65035;44.726;37.764;2023-03-20T03:02:35;9.07;;;5.00;;
75798;SDS011;65035;44.726;37.764;2023-03-20T03:04:31;7.85;;;4.68;;
75798;SDS011;65035;44.726;37.764;2023-03-20T03:07:19;10.77;;;6.55;;
75798;SDS011;65035;44.726;37.764;2023-03-20T03:08:29;9.18;;;6.43;;
75798;SDS011;65035;44.726;37.764;2023-03-20T03:10:44;8.20;;;4.80;;
75798;SDS011;65035;44.726;37.764;2023-03-20T03:12:22;7.65;;;5.00;;
75798;SDS011;65035;44.726;37.764;2023-03-20T03:16:56;10.43;;;4.97;;
75798;SDS011;65035;44.726;37.764;2023-03-20T03:18:01;10.57;;;5.85;;
75798;SDS011;65035;44.726;37.764;2023-03-20T03:19:17;8.48;;;4.90;;
75798;SDS011;65035;44.726;37.764;2023-03-20T03:22:01;9.00;;;4.68;;
75798;SDS011;65035;44.726;37.764;2023-03-20T03:23:53;8.45;;;4.95;;
75798;SDS011;65035;44.726;37.764;2023-03-20T03:24:58;7.30;;;3.92;;
75798;SDS011;65035;44.726;37.764;2023-03-20T03:26:03;9.70;;;4.70;;
75798;SDS011;65035;44.726;37.764;2023-03-20T03:27:53;9.77;;;4.82;;
75798;SDS011;65035;44.726;37.764;2023-03-20T03:28:41;8.73;;;5.15;;
75798;SDS011;65035;44.726;37.764;2023-03-20T03:29:54;9.45;;;4.40;;
75798;SDS011;65035;44.726;37.764;2023-03-20T03:31:03;8.32;;;3.95;;
75798;SDS011;65035;44.726;37.764;2023-03-20T03:32:31;7.18;;;4.38;;
75798;SDS011;65035;44.726;37.764;2023-03-20T03:34:28;8.52;;;7.05;;
75798;SDS011;65035;44.726;37.764;2023-03-20T03:36:32;6.07;;;3.80;;
75798;SDS011;65035;44.726;37.764;2023-03-20T03:38:02;7.45;;;4.03;;
75798;SDS011;65035;44.726;37.764;2023-03-20T03:39:26;10.93;;;4.80;;
75798;SDS011;65035;44.726;37.764;2023-03-20T03:41:31;7.80;;;5.88;;
75798;SDS011;65035;44.726;37.764;2023-03-20T03:42:37;7.32;;;5.47;;
75798;SDS011;65035;44.726;37.764;2023-03-20T03:46:01;9.80;;;6.18;;
75798;SDS011;65035;44.726;37.764;2023-03-20T03:47:16;7.35;;;6.20;;
75798;SDS011;65035;44.726;37.764;2023-03-20T03:48:25;7.38;;;5.95;;
75798;SDS011;65035;44.726;37.764;2023-03-20T03:50:47;8.32;;;6.68;;
75798;SDS011;65035;44.726;37.764;2023-03-20T03:51:55;9.27;;;7.28;;
75798;SDS011;65035;44.726;37.764;2023-03-20T03:53:03;9.93;;;4.25;;
75798;SDS011;65035;44.726;37.764;2023-03-20T03:54:15;10.77;;;6.57;;
75798;SDS011;65035;44.726;37.764;2023-03-20T03:55:42;12.55;;;7.00;;
75798;SDS011;65035;44.726;37.764;2023-03-20T04:00:24;9.55;;;4.32;;
75798;SDS011;65035;44.726;37.764;2023-03-20T04:01:29;8.13;;;4.70;;
75798;SDS011;65035;44.726;37.764;2023-03-20T04:02:36;9.48;;;4.72;;
75798;SDS011;65035;44.726;37.764;2023-03-20T04:03:50;9.70;;;4.43;;
75798;SDS011;65035;44.726;37.764;2023-03-20T04:04:56;9.80;;;5.07;;
75798;SDS011;65035;44.726;37.764;2023-03-20T04:06:01;13.48;;;6.20;;
75798;SDS011;65035;44.726;37.764;2023-03-20T04:07:06;22.23;;;8.07;;
75798;SDS011;65035;44.726;37.764;2023-03-20T04:08:09;32.78;;;11.38;;
75798;SDS011;65035;44.726;37.764;2023-03-20T04:09:15;51.53;;;14.52;;
75798;SDS011;65035;44.726;37.764;2023-03-20T04:10:18;49.83;;;14.23;;
75798;SDS011;65035;44.726;37.764;2023-03-20T04:11:22;50.65;;;14.57;;
75798;SDS011;65035;44.726;37.764;2023-03-20T04:12:33;56.58;;;17.10;;
75798;SDS011;65035;44.726;37.764;2023-03-20T04:13:45;56.28;;;17.70;;
75798;SDS011;65035;44.726;37.764;2023-03-20T04:14:50;55.65;;;16.00;;
75798;SDS011;65035;44.726;37.764;2023-03-20T04:15:56;55.75;;;16.42;;
75798;SDS011;65035;44.726;37.764;2023-03-20T04:17:01;54.85;;;15.73;;
75798;SDS011;65035;44.726;37.764;2023-03-20T04:18:06;50.92;;;15.70;;
75798;SDS011;65035;44.726;37.764;2023-03-20T04:19:13;56.88;;;15.52;;
75798;SDS011;65035;44.726;37.764;2023-03-20T04:20:19;55.72;;;15.85;;
75798;SDS011;65035;44.726;37.764;2023-03-20T04:21:22;49.40;;;13.93;;
75798;SDS011;65035;44.726;37.764;2023-03-20T04:22:26;42.72;;;13.82;;
75798;SDS011;65035;44.726;37.764;2023-03-20T04:23:33;43.42;;;13.27;;
75798;SDS011;65035;44.726;37.764;2023-03-20T04:24:36;41.38;;;12.80;;
75798;SDS011;65035;44.726;37.764;2023-03-20T04:25:40;41.28;;;13.50;;
75798;SDS011;65035;44.726;37.764;2023-03-20T04:26:43;41.38;;;12.98;;
75798;SDS011;65035;44.726;37.764;2023-03-20T04:27:46;43.35;;;12.20;;
75798;SDS011;65035;44.726;37.764;2023-03-20T04:29:12;40.88;;;12.95;;
75798;SDS011;65035;44.726;37.764;2023-03-20T04:30:55;40.05;;;13.18;;
75798;SDS011;65035;44.726;37.764;2023-03-20T04:32:18;42.67;;;12.93;;
75798;SDS011;65035;44.726;37.764;2023-03-20T04:33:44;40.75;;;12.10;;
75798;SDS011;65035;44.726;37.764;2023-03-20T04:35:08;41.70;;;12.32;;
75798;SDS011;65035;44.726;37.764;2023-03-20T04:36:23;35.63;;;11.48;;
75798;SDS011;65035;44.726;37.764;2023-03-20T04:37:28;41.53;;;12.50;;
75798;SDS011;65035;44.726;37.764;2023-03-20T04:38:40;41.55;;;13.00;;
75798;SDS011;65035;44.726;37.764;2023-03-20T04:39:43;39.38;;;12.15;;
75798;SDS011;65035;44.726;37.764;2023-03-20T04:40:46;41.10;;;12.65;;
75798;SDS011;65035;44.726;37.764;2023-03-20T04:41:50;35.75;;;11.63;;
75798;SDS011;65035;44.726;37.764;2023-03-20T04:42:53;38.88;;;13.15;;
75798;SDS011;65035;44.726;37.764;2023-03-20T04:43:56;36.17;;;12.63;;
75798;SDS011;65035;44.726;37.764;2023-03-20T04:44:59;34.60;;;11.07;;
75798;SDS011;65035;44.726;37.764;2023-03-20T04:46:03;26.83;;;10.77;;
75798;SDS011;65035;44.726;37.764;2023-03-20T04:47:07;32.10;;;11.68;;
75798;SDS011;65035;44.726;37.764;2023-03-20T04:48:13;35.38;;;13.13;;
75798;SDS011;65035;44.726;37.764;2023-03-20T04:49:16;38.35;;;11.38;;
75798;SDS011;65035;44.726;37.764;2023-03-20T04:50:19;30.13;;;11.18;;
75798;SDS011;65035;44.726;37.764;2023-03-20T04:51:24;33.70;;;11.57;;
75798;SDS011;65035;44.726;37.764;2023-03-20T04:52:27;37.70;;;11.32;;
75798;SDS011;65035;44.726;37.764;2023-03-20T04:53:30;32.28;;;12.82;;
75798;SDS011;65035;44.726;37.764;2023-03-20T04:54:33;28.92;;;10.90;;
75798;SDS011;65035;44.726;37.764;2023-03-20T04:55:36;30.15;;;10.90;;
75798;SDS011;65035;44.726;37.764;2023-03-20T04:56:39;37.20;;;11.48;;
75798;SDS011;65035;44.726;37.764;2023-03-20T04:57:51;25.70;;;10.20;;
75798;SDS011;65035;44.726;37.764;2023-03-20T04:58:54;32.97;;;11.27;;
75798;SDS011;65035;44.726;37.764;2023-03-20T04:59:58;29.50;;;10.82;;
75798;SDS011;65035;44.726;37.764;2023-03-20T05:01:01;29.23;;;11.32;;
75798;SDS011;65035;44.726;37.764;2023-03-20T05:02:04;27.63;;;10.15;;
75798;SDS011;65035;44.726;37.764;2023-03-20T05:03:07;26.30;;;10.20;;
75798;SDS011;65035;44.726;37.764;2023-03-20T05:04:10;25.55;;;10.07;;
75798;SDS011;65035;44.726;37.764;2023-03-20T05:05:13;32.28;;;11.18;;
75798;SDS011;65035;44.726;37.764;2023-03-20T05:06:17;31.25;;;10.65;;
75798;SDS011;65035;44.726;37.764;2023-03-20T05:07:20;27.40;;;10.02;;
75798;SDS011;65035;44.726;37.764;2023-03-20T05:08:44;25.42;;;10.02;;
75798;SDS011;65035;44.726;37.764;2023-03-20T05:09:47;23.83;;;9.30;;
75798;SDS011;65035;44.726;37.764;2023-03-20T05:10:50;25.08;;;9.60;;
75798;SDS011;65035;44.726;37.764;2023-03-20T05:13:11;25.75;;;10.02;;
75798;SDS011;65035;44.726;37.764;2023-03-20T05:14:37;24.52;;;8.65;;
75798;SDS011;65035;44.726;37.764;2023-03-20T05:15:59;24.67;;;11.00;;
75798;SDS011;65035;44.726;37.764;2023-03-20T05:17:38;23.08;;;8.68;;
75798;SDS011;65035;44.726;37.764;2023-03-20T05:18:53;23.40;;;9.18;;
75798;SDS011;65035;44.726;37.764;2023-03-20T05:20:15;25.70;;;9.38;;
75798;SDS011;65035;44.726;37.764;2023-03-20T05:21:33;23.27;;;8.65;;
75798;SDS011;65035;44.726;37.764;2023-03-20T05:23:04;19.35;;;8.95;;
75798;SDS011;65035;44.726;37.764;2023-03-20T05:24:20;24.73;;;9.85;;
75798;SDS011;65035;44.726;37.764;2023-03-20T05:25:37;21.92;;;8.60;;
75798;SDS011;65035;44.726;37.764;2023-03-20T05:26:56;23.85;;;8.82;;
75798;SDS011;65035;44.726;37.764;2023-03-20T05:28:25;19.65;;;9.18;;
75798;SDS011;65035;44.726;37.764;2023-03-20T05:29:42;25.42;;;8.52;;
75798;SDS011;65035;44.726;37.764;2023-03-20T05:30:52;21.42;;;8.60;;
75798;SDS011;65035;44.726;37.764;2023-03-20T05:32:21;19.88;;;8.05;;
75798;SDS011;65035;44.726;37.764;2023-03-20T05:35:20;26.55;;;9.82;;
75798;SDS011;65035;44.726;37.764;2023-03-20T05:37:31;16.00;;;8.07;;
75798;SDS011;65035;44.726;37.764;2023-03-20T05:38:47;19.77;;;7.97;;
75798;SDS011;65035;44.726;37.764;2023-03-20T05:40:00;19.17;;;7.88;;
75798;SDS011;65035;44.726;37.764;2023-03-20T05:42:09;19.48;;;8.13;;
75798;SDS011;65035;44.726;37.764;2023-03-20T05:43:12;17.08;;;7.65;;
75798;SDS011;65035;44.726;37.764;2023-03-20T05:44:28;18.10;;;7.30;;
75798;SDS011;65035;44.726;37.764;2023-03-20T05:46:42;16.50;;;7.10;;
75798;SDS011;65035;44.726;37.764;2023-03-20T05:49:08;20.67;;;6.63;;
75798;SDS011;65035;44.726;37.764;2023-03-20T05:50:47;16.48;;;7.30;;
75798;SDS011;65035;44.726;37.764;2023-03-20T05:51:50;15.40;;;7.72;;
75798;SDS011;65035;44.726;37.764;2023-03-20T05:53:16;14.98;;;7.18;;
75798;SDS011;65035;44.726;37.764;2023-03-20T05:54:19;15.23;;;7.28;;
75798;SDS011;65035;44.726;37.764;2023-03-20T05:55:45;14.93;;;7.05;;
75798;SDS011;65035;44.726;37.764;2023-03-20T05:56:50;14.48;;;6.60;;
75798;SDS011;65035;44.726;37.764;2023-03-20T05:58:06;15.73;;;7.30;;
75798;SDS011;65035;44.726;37.764;2023-03-20T06:00:20;16.15;;;6.50;;
75798;SDS011;65035;44.726;37.764;2023-03-20T06:01:43;12.52;;;6.50;;
75798;SDS011;65035;44.726;37.764;2023-03-20T06:03:50;13.73;;;8.05;;
75798;SDS011;65035;44.726;37.764;2023-03-20T06:05:13;14.05;;;7.90;;
75798;SDS011;65035;44.726;37.764;2023-03-20T06:06:21;16.38;;;8.43;;
75798;SDS011;65035;44.726;37.764;2023-03-20T06:07:25;14.35;;;7.85;;
75798;SDS011;65035;44.726;37.764;2023-03-20T06:08:46;14.23;;;8.60;;
75798;SDS011;65035;44.726;37.764;2023-03-20T06:09:56;15.77;;;8.50;;
75798;SDS011;65035;44.726;37.764;2023-03-20T06:11:01;16.52;;;8.75;;
75798;SDS011;65035;44.726;37.764;2023-03-20T06:12:08;13.70;;;7.93;;
75798;SDS011;65035;44.726;37.764;2023-03-20T06:13:11;12.70;;;8.77;;
75798;SDS011;65035;44.726;37.764;2023-03-20T06:14:14;15.02;;;8.30;;
75798;SDS011;65035;44.726;37.764;2023-03-20T06:17:13;12.40;;;6.80;;
75798;SDS011;65035;44.726;37.764;2023-03-20T06:19:10;14.82;;;6.30;;
75798;SDS011;65035;44.726;37.764;2023-03-20T06:20:13;11.88;;;6.20;;
75798;SDS011;65035;44.726;37.764;2023-03-20T06:22:04;12.00;;;5.88;;
75798;SDS011;65035;44.726;37.764;2023-03-20T06:23:07;14.93;;;5.22;;
75798;SDS011;65035;44.726;37.764;2023-03-20T06:24:13;13.15;;;5.78;;
75798;SDS011;65035;44.726;37.764;2023-03-20T06:25:17;13.85;;;5.88;;
75798;SDS011;65035;44.726;37.764;2023-03-20T06:26:20;13.13;;;5.93;;
75798;SDS011;65035;44.726;37.764;2023-03-20T06:27:53;12.20;;;4.90;;
75798;SDS011;65035;44.726;37.764;2023-03-20T06:28:56;14.70;;;5.82;;
75798;SDS011;65035;44.726;37.764;2023-03-20T06:30:00;9.25;;;5.03;;
75798;SDS011;65035;44.726;37.764;2023-03-20T06:31:07;12.18;;;5.78;;
75798;SDS011;65035;44.726;37.764;2023-03-20T06:32:11;12.90;;;4.60;;
75798;SDS011;65035;44.726;37.764;2023-03-20T06:33:16;13.88;;;5.30;;
75798;SDS011;65035;44.726;37.764;2023-03-20T06:34:30;9.85;;;4.75;;
75798;SDS011;65035;44.726;37.764;2023-03-20T06:36:28;11.48;;;6.03;;
75798;SDS011;65035;44.726;37.764;2023-03-20T06:37:37;9.18;;;5.45;;
75798;SDS011;65035;44.726;37.764;2023-03-20T06:38:45;10.73;;;4.78;;
75798;SDS011;65035;44.726;37.764;2023-03-20T06:39:50;11.38;;;5.00;;
75798;SDS011;65035;44.726;37.764;2023-03-20T06:40:53;10.57;;;4.72;;
75798;SDS011;65035;44.726;37.764;2023-03-20T06:41:57;10.70;;;4.72;;
75798;SDS011;65035;44.726;37.764;2023-03-20T06:43:00;10.63;;;5.00;;
75798;SDS011;65035;44.726;37.764;2023-03-20T06:44:16;10.88;;;4.82;;
75798;SDS011;65035;44.726;37.764;2023-03-20T06:45:37;10.40;;;4.75;;
75798;SDS011;65035;44.726;37.764;2023-03-20T06:46:50;9.32;;;5.00;;
75798;SDS011;65035;44.726;37.764;2023-03-20T06:47:53;9.15;;;4.65;;
75798;SDS011;65035;44.726;37.764;2023-03-20T06:48:56;11.43;;;4.78;;
75798;SDS011;65035;44.726;37.764;2023-03-20T06:49:59;8.63;;;4.57;;
75798;SDS011;65035;44.726;37.764;2023-03-20T06:51:04;9.88;;;4.60;;
75798;SDS011;65035;44.726;37.764;2023-03-20T06:52:16;11.68;;;5.10;;
75798;SDS011;65035;44.726;37.764;2023-03-20T06:53:37;11.40;;;4.28;;
75798;SDS011;65035;44.726;37.764;2023-03-20T06:54:49;8.43;;;3.83;;
75798;SDS011;65035;44.726;37.764;2023-03-20T06:55:53;10.77;;;4.38;;
75798;SDS011;65035;44.726;37.764;2023-03-20T06:56:56;8.77;;;4.90;;
75798;SDS011;65035;44.726;37.764;2023-03-20T06:57:59;9.23;;;5.03;;
75798;SDS011;65035;44.726;37.764;2023-03-20T06:59:03;9.02;;;4.43;;
75798;SDS011;65035;44.726;37.764;2023-03-20T07:00:07;10.52;;;4.60;;
75798;SDS011;65035;44.726;37.764;2023-03-20T07:01:12;9.25;;;3.85;;
75798;SDS011;65035;44.726;37.764;2023-03-20T07:02:18;8.80;;;4.63;;
75798;SDS011;65035;44.726;37.764;2023-03-20T07:03:21;9.73;;;4.03;;
75798;SDS011;65035;44.726;37.764;2023-03-20T07:04:25;7.25;;;3.90;;
75798;SDS011;65035;44.726;37.764;2023-03-20T07:05:33;9.98;;;4.03;;
75798;SDS011;65035;44.726;37.764;2023-03-20T07:06:40;7.80;;;3.92;;
75798;SDS011;65035;44.726;37.764;2023-03-20T07:07:44;7.90;;;3.58;;
75798;SDS011;65035;44.726;37.764;2023-03-20T07:08:48;8.10;;;4.18;;
75798;SDS011;65035;44.726;37.764;2023-03-20T07:09:54;7.47;;;4.72;;
75798;SDS011;65035;44.726;37.764;2023-03-20T07:10:58;8.23;;;3.50;;
75798;SDS011;65035;44.726;37.764;2023-03-20T07:13:08;6.95;;;3.33;;
75798;SDS011;65035;44.726;37.764;2023-03-20T07:14:17;8.52;;;3.90;;
75798;SDS011;65035;44.726;37.764;2023-03-20T07:15:33;7.57;;;3.75;;
75798;SDS011;65035;44.726;37.764;2023-03-20T07:16:38;6.97;;;3.30;;
75798;SDS011;65035;44.726;37.764;2023-03-20T07:17:42;7.15;;;3.70;;
75798;SDS011;65035;44.726;37.764;2023-03-20T07:18:45;7.60;;;3.72;;
75798;SDS011;65035;44.726;37.764;2023-03-20T07:19:48;8.07;;;3.47;;
75798;SDS011;65035;44.726;37.764;2023-03-20T07:20:52;6.63;;;4.10;;
75798;SDS011;65035;44.726;37.764;2023-03-20T07:21:59;7.32;;;3.70;;
75798;SDS011;65035;44.726;37.764;2023-03-20T07:23:13;6.43;;;3.58;;
75798;SDS011;65035;44.726;37.764;2023-03-20T07:24:16;7.80;;;3.80;;
75798;SDS011;65035;44.726;37.764;2023-03-20T07:25:19;5.50;;;4.30;;
75798;SDS011;65035;44.726;37.764;2023-03-20T07:26:40;7.65;;;3.72;;
75798;SDS011;65035;44.726;37.764;2023-03-20T07:27:44;7.13;;;2.97;;
75798;SDS011;65035;44.726;37.764;2023-03-20T07:28:55;7.00;;;3.53;;
75798;SDS011;65035;44.726;37.764;2023-03-20T07:29:59;5.60;;;3.55;;
75798;SDS011;65035;44.726;37.764;2023-03-20T07:31:51;6.30;;;3.33;;
75798;SDS011;65035;44.726;37.764;2023-03-20T07:33:02;6.22;;;3.63;;
75798;SDS011;65035;44.726;37.764;2023-03-20T07:34:07;5.93;;;3.83;;
75798;SDS011;65035;44.726;37.764;2023-03-20T07:35:11;5.75;;;3.92;;
75798;SDS011;65035;44.726;37.764;2023-03-20T07:36:16;8.48;;;3.67;;
75798;SDS011;65035;44.726;37.764;2023-03-20T07:37:19;6.82;;;3.55;;
75798;SDS011;65035;44.726;37.764;2023-03-20T07:38:31;7.97;;;3.92;;
75798;SDS011;65035;44.726;37.764;2023-03-20T07:39:43;5.07;;;3.47;;
75798;SDS011;65035;44.726;37.764;2023-03-20T07:41:01;7.75;;;3.28;;
75798;SDS011;65035;44.726;37.764;2023-03-20T07:42:05;7.32;;;4.15;;
75798;SDS011;65035;44.726;37.764;2023-03-20T07:43:18;6.32;;;2.72;;
75798;SDS011;65035;44.726;37.764;2023-03-20T07:44:40;6.40;;;3.53;;
75798;SDS011;65035;44.726;37.764;2023-03-20T07:45:45;6.43;;;3.00;;
75798;SDS011;65035;44.726;37.764;2023-03-20T07:46:48;5.65;;;3.05;;
75798;SDS011;65035;44.726;37.764;2023-03-20T07:47:51;5.57;;;2.97;;
75798;SDS011;65035;44.726;37.764;2023-03-20T07:48:54;4.80;;;2.97;;
75798;SDS011;65035;44.726;37.764;2023-03-20T07:49:59;6.75;;;3.30;;
75798;SDS011;65035;44.726;37.764;2023-03-20T07:51:05;6.28;;;3.25;;
75798;SDS011;65035;44.726;37.764;2023-03-20T07:52:08;5.43;;;3.05;;
75798;SDS011;65035;44.726;37.764;2023-03-20T07:53:11;5.85;;;2.97;;
75798;SDS011;65035;44.726;37.764;2023-03-20T07:54:14;6.70;;;3.17;;
75798;SDS011;65035;44.726;37.764;2023-03-20T07:55:17;6.57;;;3.28;;
75798;SDS011;65035;44.726;37.764;2023-03-20T07:56:21;5.72;;;3.10;;
75798;SDS011;65035;44.726;37.764;2023-03-20T07:57:24;6.07;;;2.90;;
75798;SDS011;65035;44.726;37.764;2023-03-20T07:58:30;7.97;;;2.72;;
75798;SDS011;65035;44.726;37.764;2023-03-20T07:59:36;5.60;;;2.67;;
75798;SDS011;65035;44.726;37.764;2023-03-20T08:00:39;5.82;;;2.58;;
75798;SDS011;65035;44.726;37.764;2023-03-20T08:01:42;6.97;;;3.28;;
75798;SDS011;65035;44.726;37.764;2023-03-20T08:02:45;5.30;;;3.20;;
75798;SDS011;65035;44.726;37.764;2023-03-20T08:03:48;6.90;;;3.25;;
75798;SDS011;65035;44.726;37.764;2023-03-20T08:04:52;6.55;;;2.88;;
75798;SDS011;65035;44.726;37.764;2023-03-20T08:05:55;5.63;;;2.85;;
75798;SDS011;65035;44.726;37.764;2023-03-20T08:06:58;4.93;;;2.80;;
75798;SDS011;65035;44.726;37.764;2023-03-20T08:08:01;6.05;;;3.13;;
75798;SDS011;65035;44.726;37.764;2023-03-20T08:09:05;6.53;;;2.72;;
75798;SDS011;65035;44.726;37.764;2023-03-20T08:10:08;6.40;;;3.15;;
75798;SDS011;65035;44.726;37.764;2023-03-20T08:11:12;4.60;;;2.55;;
75798;SDS011;65035;44.726;37.764;2023-03-20T08:13:03;5.47;;;2.22;;
75798;SDS011;65035;44.726;37.764;2023-03-20T08:14:54;5.22;;;3.92;;
75798;SDS011;65035;44.726;37.764;2023-03-20T08:15:57;6.43;;;5.00;;
75798;SDS011;65035;44.726;37.764;2023-03-20T08:17:00;5.18;;;4.25;;
75798;SDS011;65035;44.726;37.764;2023-03-20T08:18:15;8.18;;;4.53;;
75798;SDS011;65035;44.726;37.764;2023-03-20T08:19:18;7.80;;;5.43;;
75798;SDS011;65035;44.726;37.764;2023-03-20T08:20:21;5.28;;;4.78;;
75798;SDS011;65035;44.726;37.764;2023-03-20T08:21:24;5.90;;;5.30;;
75798;SDS011;65035;44.726;37.764;2023-03-20T08:22:28;6.00;;;4.25;;
75798;SDS011;65035;44.726;37.764;2023-03-20T08:23:31;5.57;;;4.38;;
75798;SDS011;65035;44.726;37.764;2023-03-20T08:24:34;6.00;;;4.57;;
75798;SDS011;65035;44.726;37.764;2023-03-20T08:25:38;4.68;;;3.30;;
75798;SDS011;65035;44.726;37.764;2023-03-20T08:26:41;5.82;;;5.18;;
75798;SDS011;65035;44.726;37.764;2023-03-20T08:27:45;7.28;;;4.65;;
75798;SDS011;65035;44.726;37.764;2023-03-20T08:28:48;6.03;;;4.55;;
75798;SDS011;65035;44.726;37.764;2023-03-20T08:29:52;4.97;;;4.38;;
75798;SDS011;65035;44.726;37.764;2023-03-20T08:30:55;4.95;;;4.22;;
75798;SDS011;65035;44.726;37.764;2023-03-20T08:31:58;5.50;;;4.50;;